TimePST,TemperatureF,Dew PointF,Humidity,Sea Level PressureIn,VisibilityMPH,Wind Direction,Wind SpeedMPH,Gust SpeedMPH,PrecipitationIn,Events,Conditions,WindDirDegrees,DateUTC
12:53 AM,54.0,51.1,90,29.52,10.0,South,19.6,24.2,N/A,,Overcast,170,2012-11-19 08:53:00
1:53 AM,53.1,51.1,93,29.51,8.0,South,13.8,-,0.00,,Overcast,170,2012-11-19 09:53:00
2:45 AM,53.6,51.8,94,29.50,10.0,SSE,8.1,-,0.01,Rain,Light Rain,150,2012-11-19 10:45:00
2:53 AM,54.0,51.1,90,29.51,10.0,SSE,11.5,-,0.01,,Overcast,160,2012-11-19 10:53:00
3:14 AM,53.6,51.8,94,29.51,8.0,South,13.8,-,0.01,Rain,Light Rain,180,2012-11-19 11:14:00
3:51 AM,53.6,51.8,94,29.48,5.0,South,8.1,-,0.08,Rain,Light Rain,170,2012-11-19 11:51:00
3:53 AM,53.1,52.0,96,29.49,5.0,South,8.1,-,0.09,Rain,Light Rain,170,2012-11-19 11:53:00
3:55 AM,53.6,51.8,94,29.48,4.0,South,10.4,-,0.01,Rain,Light Rain,180,2012-11-19 11:55:00
4:12 AM,53.6,51.8,94,29.48,5.0,South,11.5,-,0.06,Rain,Light Rain,190,2012-11-19 12:12:00
4:53 AM,53.1,51.1,93,29.47,2.5,SSE,4.6,-,0.22,Rain,Rain,150,2012-11-19 12:53:00
5:01 AM,53.6,51.8,94,29.47,3.0,Variable,3.5,-,0.02,Rain,Rain,0,2012-11-19 13:01:00
5:25 AM,51.8,50.0,94,29.46,4.0,ENE,4.6,-,0.09,Rain,Rain,60,2012-11-19 13:25:00
5:51 AM,50.0,48.2,94,29.45,4.0,East,9.2,-,0.18,Rain,Rain,80,2012-11-19 13:51:00
5:53 AM,50.0,48.9,96,29.46,4.0,ENE,10.4,-,0.19,Rain,Rain,70,2012-11-19 13:53:00
6:04 AM,51.8,50.0,94,29.45,4.0,ENE,9.2,-,0.06,Rain,Rain,60,2012-11-19 14:04:00
6:48 AM,50.0,48.2,94,29.43,4.0,NE,6.9,-,0.29,Rain,Rain,40,2012-11-19 14:48:00
6:53 AM,50.0,48.9,96,29.44,4.0,NE,6.9,-,0.31,Rain,Rain,50,2012-11-19 14:53:00
7:30 AM,50.0,48.2,94,29.42,2.5,NE,4.6,-,0.23,Rain,Heavy Rain,50,2012-11-19 15:30:00
7:53 AM,48.9,46.9,93,29.42,2.5,NE,9.2,-,0.42,Rain,Heavy Rain,50,2012-11-19 15:53:00
8:25 AM,48.2,46.4,93,29.41,1.0,NNE,12.7,-,0.27,Rain,Heavy Rain,20,2012-11-19 16:25:00
8:33 AM,48.2,46.4,93,29.40,0.8,NNE,10.4,-,0.38,Rain,Heavy Rain,20,2012-11-19 16:33:00
8:40 AM,51.8,48.2,88,29.40,1.0,Variable,4.6,17.3,0.45,Rain,Heavy Rain,0,2012-11-19 16:40:00
8:53 AM,52.0,51.1,97,29.39,1.5,Variable,5.8,23.0,0.54,Rain,Rain,0,2012-11-19 16:53:00
8:58 AM,51.8,51.8,100,29.37,1.2,SSE,16.1,26.5,0.04,Rain,Rain,160,2012-11-19 16:58:00
9:09 AM,53.6,51.8,94,29.37,0.8,South,23.0,32.2,0.23,Rain,Heavy Rain,190,2012-11-19 17:09:00
9:18 AM,53.6,51.8,94,29.36,1.0,South,17.3,28.8,0.32,Rain,Heavy Rain,190,2012-11-19 17:18:00
9:27 AM,55.4,53.6,94,29.35,2.0,South,19.6,29.9,0.35,Rain,Light Rain,190,2012-11-19 17:27:00
9:42 AM,55.4,53.6,94,29.35,3.0,South,27.6,43.7,0.38,Rain,Light Rain,190,2012-11-19 17:42:00
9:51 AM,55.4,53.6,94,29.34,2.0,South,36.8,49.5,0.40,Rain,Light Rain,180,2012-11-19 17:51:00
9:53 AM,55.9,53.1,90,29.35,1.8,South,35.7,49.5,0.40,,Overcast,170,2012-11-19 17:53:00
9:58 AM,55.4,53.6,94,29.34,2.0,South,36.8,55.2,N/A,,Overcast,170,2012-11-19 17:58:00
10:23 AM,55.4,53.6,94,29.36,1.0,South,33.4,50.6,0.09,,Overcast,180,2012-11-19 18:23:00
10:28 AM,55.4,53.6,94,29.35,0.8,South,27.6,50.6,0.15,Rain,Heavy Rain,190,2012-11-19 18:28:00
10:53 AM,54.0,53.1,97,29.35,1.0,SSW,29.9,41.4,0.51,Rain,Heavy Rain,200,2012-11-19 18:53:00
11:09 AM,55.4,53.6,94,29.32,2.5,SSE,35.7,61.0,0.06,Rain,Light Rain,160,2012-11-19 19:09:00
11:28 AM,55.4,53.6,94,29.32,3.0,South,41.4,57.5,0.10,Rain,Light Rain,170,2012-11-19 19:28:00
11:44 AM,55.4,51.8,88,29.33,2.5,South,39.1,57.5,0.11,,Overcast,170,2012-11-19 19:44:00
11:53 AM,55.9,53.1,90,29.33,2.5,South,34.5,51.8,0.11,,Overcast,180,2012-11-19 19:53:00
12:02 PM,55.4,51.8,88,29.32,6.0,South,29.9,43.7,0.01,Rain,Light Rain,170,2012-11-19 20:02:00
12:12 PM,55.4,51.8,88,29.32,8.0,SSE,26.5,38.0,0.01,,Overcast,160,2012-11-19 20:12:00
12:41 PM,55.4,51.8,88,29.36,8.0,South,31.1,43.7,0.01,,Overcast,170,2012-11-19 20:41:00
12:53 PM,55.0,52.0,89,29.38,9.0,South,34.5,46.0,0.01,,Mostly Cloudy,180,2012-11-19 20:53:00
1:12 PM,55.4,51.8,88,29.38,10.0,South,28.8,36.8,N/A,,Mostly Cloudy,180,2012-11-19 21:12:00
1:30 PM,55.4,51.8,88,29.39,10.0,South,28.8,36.8,N/A,,Mostly Cloudy,180,2012-11-19 21:30:00
1:53 PM,55.0,52.0,89,29.41,10.0,South,25.3,34.5,N/A,,Mostly Cloudy,180,2012-11-19 21:53:00
2:38 PM,55.4,51.8,88,29.42,10.0,South,19.6,29.9,N/A,,Mostly Cloudy,190,2012-11-19 22:38:00
2:53 PM,55.0,52.0,89,29.43,9.0,SSW,21.9,27.6,N/A,,Overcast,200,2012-11-19 22:53:00
3:53 PM,54.0,51.1,90,29.47,10.0,SSW,23.0,27.6,N/A,,Overcast,210,2012-11-19 23:53:00
4:08 PM,53.6,51.8,94,29.46,10.0,SSW,20.7,-,N/A,,Mostly Cloudy,210,2012-11-20 00:08:00
4:53 PM,53.1,50.0,89,29.51,10.0,SSW,18.4,-,N/A,,Scattered Clouds,200,2012-11-20 00:53:00
5:53 PM,52.0,48.9,89,29.54,10.0,South,13.8,-,N/A,,Overcast,190,2012-11-20 01:53:00
6:53 PM,52.0,46.9,83,29.58,10.0,SSW,12.7,-,N/A,,Overcast,200,2012-11-20 02:53:00
7:53 PM,50.0,48.0,93,29.60,10.0,SSE,4.6,-,N/A,,Overcast,160,2012-11-20 03:53:00
8:53 PM,50.0,46.0,86,29.62,7.0,SW,17.3,24.2,0.01,Rain,Light Rain,220,2012-11-20 04:53:00
9:09 PM,48.2,44.6,87,29.62,9.0,SSW,11.5,-,0.01,Rain,Light Rain,200,2012-11-20 05:09:00
9:53 PM,48.0,46.0,93,29.64,10.0,SE,4.6,-,0.02,,Overcast,140,2012-11-20 05:53:00
10:27 PM,46.4,44.6,93,29.64,10.0,ENE,3.5,-,N/A,,Mostly Cloudy,60,2012-11-20 06:27:00
10:53 PM,46.0,45.0,96,29.66,10.0,ENE,5.8,-,N/A,,Mostly Cloudy,70,2012-11-20 06:53:00
11:00 PM,46.4,44.6,93,29.65,10.0,ENE,4.6,-,N/A,,Mostly Cloudy,70,2012-11-20 07:00:00
11:53 PM,48.9,46.9,93,29.67,10.0,ENE,4.6,-,N/A,,Overcast,70,2012-11-20 07:53:00